Weather History for Forest City, IA

Change the Weather History Date:

Tuesday, April 9, 2013

  Actual Average Record
Temperature  
Mean Temperature 40 °F -  
Max Temperature 44 °F 52 °F 71 °F (2014)
Min Temperature 37 °F 30 °F 28 °F (2014)
Degree Days  
Heating Degree Days 24    
Moisture  
Dew Point 37 °F    
Average Humidity 86    
Maximum Humidity 93    
Minimum Humidity 81    
Precipitation  
Precipitation 2.06 in - - ()
Sea Level Pressure  
Sea Level Pressure 29.89 in    
Wind  
Wind Speed 16 mph (NE)    
Max Wind Speed 23 mph    
Max Gust Speed 32 mph    
Visibility 5 miles    
Events Rain    
Averages and records for this station are not official NWS values.
T = Trace of Precipitation, MM = Missing Value Source: NWS Daily Summary

Daily Weather History Graph

Daily Weather History Graph

Search for Another Location

Airport:

Trip Planner

Search our weather history database for the weather conditions in past years. The results will help you decide how hot, cold, wet, or windy it might be!

Date:

Astronomy

Apr. 09, 2013 Rise Set
Actual Time 6:41 AM CDT 7:50 PM CDT
Civil Twilight 6:12 AM CDT 8:19 PM CDT
Nautical Twilight 5:37 AM CDT 8:55 PM CDT
Astronomical Twilight 5:01 AM CDT 9:32 PM CDT
Moon 6:05 AM CDT (4/9) 7:27 PM CDT (4/9)
Length of Visible Light 14h 07m
Length of Day
13h 08m
Waning Crescent, 1% of the Moon is Illuminated
Apr 9
Waning Crescent
Apr 10
New
Apr 18
First Quarter
Apr 25
Full
May 2
Last Quarter

Hourly Weather History & Observations

Time (CDT) Temp. Windchill Dew Point Humidity Pressure Visibility Wind Dir Wind Speed Gust Speed Precip Events Conditions
12:15 AM 44.6 °F 38.1 °F 41.0 °F 87% 29.92 in 7.0 mi NE 13.8 mph 21.9 mph N/A   Overcast
12:35 AM 44.6 °F 37.2 °F 41.0 °F 87% 29.90 in 5.0 mi NE 17.3 mph 24.2 mph N/A   Haze
12:55 AM 44.6 °F 36.6 °F 41.0 °F 87% 29.89 in 5.0 mi NE 19.6 mph 28.8 mph N/A   Overcast
1:15 AM 42.8 °F 34.5 °F 39.2 °F 87% 29.88 in 5.0 mi NE 18.4 mph 24.2 mph N/A   Overcast
1:35 AM 42.8 °F 35.4 °F 39.2 °F 87% 29.87 in 5.0 mi NE 15.0 mph 24.2 mph N/A   Overcast
1:55 AM 42.8 °F 34.8 °F 39.2 °F 87% 29.82 in 4.0 mi NE 17.3 mph 26.5 mph N/A   Overcast
2:15 AM 42.8 °F 36.6 °F 37.4 °F 81% 29.88 in 5.0 mi ENE 11.5 mph 18.4 mph N/A   Haze
2:35 AM 42.8 °F 35.8 °F 37.4 °F 81% 29.87 in 5.0 mi NE 13.8 mph 21.9 mph N/A   Overcast
2:55 AM 42.8 °F 36.2 °F 37.4 °F 81% 29.87 in 5.0 mi NE 12.7 mph 20.7 mph N/A   Overcast
3:15 AM 42.8 °F 36.6 °F 37.4 °F 81% 29.89 in 5.0 mi NE 11.5 mph 18.4 mph N/A   Overcast
3:35 AM 42.8 °F 36.2 °F 37.4 °F 81% 29.89 in 5.0 mi NE 12.7 mph 20.7 mph N/A Rain Light Rain
3:55 AM 42.8 °F 34.8 °F 37.4 °F 81% 29.86 in 5.0 mi NE 17.3 mph 26.5 mph N/A Rain Light Rain
4:15 AM 41.0 °F 31.4 °F 37.4 °F 87% 29.81 in 3.0 mi NE 21.9 mph 27.6 mph 0.03 in Rain Rain
4:35 AM 41.0 °F 33.5 °F 37.4 °F 87% 29.85 in 4.0 mi NE 13.8 mph 23.0 mph 0.04 in Rain Light Rain
4:55 AM 41.0 °F 32.8 °F 37.4 °F 87% 29.85 in 5.0 mi NNE 16.1 mph - 0.04 in Rain Rain
5:15 AM 42.8 °F 34.8 °F 37.4 °F 81% 29.85 in 4.0 mi NNE 17.3 mph 20.7 mph 0.01 in Rain Rain
5:35 AM 42.8 °F 37.0 °F 37.4 °F 81% 29.89 in 3.0 mi NE 10.4 mph - 0.05 in Rain Heavy Rain
5:55 AM 41.0 °F 33.9 °F 37.4 °F 87% 29.87 in 2.5 mi NE 12.7 mph 17.3 mph 0.18 in Rain Heavy Rain
6:15 AM 41.0 °F 32.2 °F 37.4 °F 87% 29.86 in 4.0 mi NNE 18.4 mph 25.3 mph N/A Rain Rain
6:35 AM 41.0 °F 32.2 °F 37.4 °F 87% 29.85 in 5.0 mi NE 18.4 mph 26.5 mph N/A   Light Drizzle
6:55 AM 41.0 °F 32.2 °F 37.4 °F 87% 29.82 in 5.0 mi NE 18.4 mph 27.6 mph N/A   Light Drizzle
7:15 AM 41.0 °F 32.5 °F 37.4 °F 87% 29.82 in 4.0 mi NE 17.3 mph 26.5 mph N/A Rain Light Rain
7:35 AM 41.0 °F 32.5 °F 37.4 °F 87% 29.85 in 2.5 mi NE 17.3 mph 25.3 mph 0.03 in Rain Rain
7:55 AM 41.0 °F 31.9 °F 37.4 °F 87% 29.84 in 2.5 mi NE 19.6 mph 25.3 mph 0.11 in Rain Heavy Rain
8:15 AM 41.0 °F 32.2 °F 37.4 °F 87% 29.85 in 1.5 mi NE 18.4 mph 24.2 mph 0.06 in Rain Heavy Rain
8:35 AM 41.0 °F 32.8 °F 37.4 °F 87% 29.85 in 2.0 mi NE 16.1 mph 24.2 mph 0.12 in Rain Rain
8:55 AM 41.0 °F 32.8 °F 37.4 °F 87% 29.82 in 4.0 mi NE 16.1 mph 27.6 mph 0.17 in Rain Rain
9:15 AM 41.0 °F 31.9 °F 37.4 °F 87% 29.83 in 3.0 mi NE 19.6 mph 25.3 mph 0.04 in Rain Rain
9:35 AM 41.0 °F 33.9 °F 37.4 °F 87% 29.89 in 3.0 mi North 12.7 mph 17.3 mph 0.09 in Rain Rain
9:55 AM 41.0 °F 31.1 °F 37.4 °F 87% 29.78 in 4.0 mi NNE 23.0 mph 32.2 mph 0.12 in Rain Light Rain
10:15 AM 41.0 °F 32.2 °F 37.4 °F 87% 29.85 in 10.0 mi NE 18.4 mph 24.2 mph N/A   Light Drizzle
10:35 AM 41.0 °F 33.1 °F 37.4 °F 87% 29.86 in 10.0 mi NNE 15.0 mph 23.0 mph N/A   Overcast
10:55 AM 41.0 °F 32.5 °F 37.4 °F 87% 29.87 in 10.0 mi NE 17.3 mph 23.0 mph N/A   Overcast
11:15 AM 41.0 °F 32.8 °F 37.4 °F 87% 29.89 in 10.0 mi NNE 16.1 mph 19.6 mph N/A Rain Light Rain
11:35 AM 41.0 °F 31.4 °F 37.4 °F 87% 29.89 in 10.0 mi NNE 21.9 mph 26.5 mph N/A   Drizzle
11:55 AM 41.0 °F 32.2 °F 37.4 °F 87% 29.89 in 10.0 mi NNE 18.4 mph 25.3 mph N/A   Drizzle
12:15 PM 41.0 °F 31.9 °F 37.4 °F 87% 29.89 in 10.0 mi NNE 19.6 mph 31.1 mph N/A   Overcast
12:35 PM 41.0 °F 31.4 °F 37.4 °F 87% 29.88 in 10.0 mi NNE 21.9 mph 28.8 mph N/A   Overcast
12:55 PM 41.0 °F 32.2 °F 37.4 °F 87% 29.89 in 4.0 mi NE 18.4 mph 31.1 mph N/A   Overcast
1:15 PM 41.0 °F 31.6 °F 37.4 °F 87% 29.88 in 4.0 mi NNE 20.7 mph 28.8 mph N/A   Overcast
1:35 PM 41.0 °F 31.4 °F 37.4 °F 87% 29.89 in 7.0 mi NE 21.9 mph 31.1 mph N/A   Overcast
1:55 PM 41.0 °F 33.1 °F 37.4 °F 87% 29.89 in 10.0 mi NE 15.0 mph 31.1 mph N/A   Overcast
2:15 PM 41.0 °F 31.9 °F 37.4 °F 87% 29.90 in 10.0 mi NE 19.6 mph 28.8 mph N/A   Overcast
2:35 PM 42.8 °F 34.8 °F 37.4 °F 81% 29.89 in 10.0 mi NE 17.3 mph 28.8 mph N/A   Overcast
2:55 PM 41.0 °F 31.9 °F 37.4 °F 87% 29.90 in 4.0 mi NE 19.6 mph 29.9 mph N/A   Overcast
3:15 PM 42.8 °F 35.4 °F 37.4 °F 81% 29.90 in 5.0 mi NE 15.0 mph 27.6 mph N/A   Overcast
3:35 PM 42.8 °F 34.5 °F 37.4 °F 81% 29.92 in 4.0 mi NE 18.4 mph 26.5 mph N/A   Overcast
3:55 PM 42.8 °F 35.4 °F 37.4 °F 81% 29.92 in 3.0 mi NE 15.0 mph 25.3 mph N/A   Overcast
4:15 PM 42.8 °F 34.8 °F 39.2 °F 87% 29.93 in 2.5 mi NE 17.3 mph 25.3 mph N/A   Overcast
4:35 PM 42.8 °F 34.5 °F 39.2 °F 87% 29.92 in 2.5 mi NE 18.4 mph 24.2 mph N/A   Overcast
4:55 PM 42.8 °F 36.6 °F 39.2 °F 87% 29.93 in 3.0 mi NE 11.5 mph 24.2 mph N/A   Overcast
5:15 PM 42.8 °F 34.8 °F 39.2 °F 87% 29.92 in 2.5 mi NNE 17.3 mph 23.0 mph N/A   Overcast
5:35 PM 42.8 °F 35.4 °F 37.4 °F 81% 29.95 in 2.0 mi NNE 15.0 mph 25.3 mph N/A   Light Drizzle
5:55 PM 41.0 °F 31.9 °F 37.4 °F 87% 29.93 in 2.0 mi NE 19.6 mph 27.6 mph 0.01 in Rain Rain
6:15 PM 41.0 °F 32.2 °F 37.4 °F 87% 29.89 in 3.0 mi NE 18.4 mph 23.0 mph N/A Rain Light Rain
6:35 PM 41.0 °F 32.2 °F 37.4 °F 87% 29.87 in 3.0 mi ENE 18.4 mph 26.5 mph 0.06 in Rain Heavy Rain
6:55 PM 41.0 °F 31.9 °F 37.4 °F 87% 29.86 in 7.0 mi NE 19.6 mph 28.8 mph 0.10 in Rain Light Rain
7:15 PM 41.0 °F 31.1 °F 37.4 °F 87% 29.83 in 10.0 mi NE 23.0 mph 29.9 mph N/A   Overcast
7:35 PM 41.0 °F 33.5 °F 37.4 °F 87% 29.96 in 10.0 mi NNW 13.8 mph 24.2 mph 0.01 in Rain Rain
7:55 PM 41.0 °F 33.9 °F 35.6 °F 81% 29.93 in 0.8 mi NE 12.7 mph 21.9 mph 0.46 in Rain Rain
8:15 PM 39.2 °F 30.5 °F 35.6 °F 87% 29.88 in 5.0 mi NE 16.1 mph 26.5 mph 0.03 in Rain Light Rain
8:35 PM 41.0 °F 31.1 °F 35.6 °F 81% 29.96 in 10.0 mi North 23.0 mph 27.6 mph 0.04 in Rain Rain
8:55 PM 41.0 °F 31.9 °F 35.6 °F 81% 29.92 in 7.0 mi North 19.6 mph 25.3 mph 0.08 in Rain Light Rain
9:15 PM 41.0 °F 32.5 °F 35.6 °F 81% 29.93 in 0.5 mi NE 17.3 mph 24.2 mph 0.24 in   Unknown
9:55 PM 41.0 °F 34.3 °F 35.6 °F 81% 30.06 in 1.2 mi WNW 11.5 mph - 0.43 in Rain Light Rain
10:15 PM 37.4 °F 28.9 °F 35.6 °F 93% 29.96 in 0.8 mi NE 13.8 mph 19.6 mph 0.22 in Rain Heavy Rain
10:35 PM 37.4 °F 28.9 °F 35.6 °F 93% 29.97 in 3.0 mi North 13.8 mph 21.9 mph 0.28 in Rain Rain
10:55 PM 37.4 °F 28.5 °F 35.6 °F 93% 29.95 in 4.0 mi NE 15.0 mph 21.9 mph 0.31 in Rain Light Rain
11:15 PM 37.4 °F 28.2 °F 35.6 °F 93% 29.98 in 5.0 mi NNE 16.1 mph - 0.05 in Rain Heavy Rain